Time;durP1;ratioP1;P1;durP2;ratioP2;P2;SDS_P1;SDS_P2;PMS_P1;PMS_P2;Temp;Humidity;BMP_temperature;BMP_pressure;BME280_temperature;BME280_humidity;BME280_pressure;Samples;Min_cycle;Max_cycle;Signal;HPM_P1;HPM_P2
2022/07/25 00:00:35;;;;;;;6.77;5.17;;;;;;;27.51;100.00;101177.88;2057169;28;20266;-65
2022/07/25 00:01:35;;;;;;;5.43;4.93;;;;;;;27.12;100.00;101145.47;2056571;28;20205;-65
2022/07/25 00:02:36;;;;;;;6.00;5.40;;;;;;;26.43;100.00;101025.75;2056941;28;20704;-65
2022/07/25 00:03:36;;;;;;;5.90;5.13;;;;;;;27.44;100.00;101183.41;2052114;28;20203;-65
2022/07/25 00:04:37;;;;;;;8.57;5.23;;;;;;;27.00;100.00;101113.53;2054070;28;20281;-65
2022/07/25 00:05:37;;;;;;;5.80;5.20;;;;;;;27.45;100.00;101180.03;2056475;28;20218;-65
2022/07/25 00:06:38;;;;;;;7.30;5.67;;;;;;;27.45;100.00;101170.69;2057130;28;20266;-65
2022/07/25 00:07:39;;;;;;;5.77;5.23;;;;;;;27.43;100.00;101176.94;2056942;28;20197;-65
2022/07/25 00:08:39;;;;;;;6.93;5.50;;;;;;;27.39;100.00;101175.69;2064112;28;20688;-65
2022/07/25 00:09:40;;;;;;;7.27;5.20;;;;;;;27.37;100.00;101184.00;2064929;28;20198;-65
2022/07/25 00:10:40;;;;;;;10.90;6.00;;;;;;;27.35;100.00;101180.91;2064222;28;20640;-65
2022/07/25 00:11:41;;;;;;;8.07;6.03;;;;;;;27.28;100.00;101175.84;2061059;28;20186;-65
2022/07/25 00:12:42;;;;;;;8.17;5.60;;;;;;;27.18;100.00;101161.19;2048490;29;20198;-65
2022/07/25 00:13:43;;;;;;;7.03;5.50;;;;;;;27.16;100.00;101163.00;2049348;28;20187;-65
2022/07/25 00:14:43;;;;;;;6.57;5.87;;;;;;;26.52;100.00;101075.78;2064822;28;20192;-65
2022/07/25 00:15:44;;;;;;;7.77;5.77;;;;;;;27.01;100.00;101163.44;2065218;28;20178;-65
2022/07/25 00:16:44;;;;;;;7.53;5.90;;;;;;;27.15;100.00;101178.53;2065035;28;20190;-65
2022/07/25 00:17:45;;;;;;;11.00;5.83;;;;;;;27.07;100.00;101180.44;2064884;28;20198;-65
2022/07/25 00:18:45;;;;;;;7.37;5.50;;;;;;;27.03;100.00;101169.34;2064861;28;20182;-65
2022/07/25 00:19:46;;;;;;;8.37;6.00;;;;;;;26.20;100.00;101061.34;2056132;28;20183;-65
2022/07/25 00:20:46;;;;;;;6.30;5.70;;;;;;;26.90;100.00;101171.28;2055470;28;20190;-65
2022/07/25 00:21:47;;;;;;;6.03;5.43;;;;;;;26.63;100.00;101135.38;2056822;28;20250;-65
2022/07/25 00:22:47;;;;;;;6.27;5.63;;;;;;;26.82;100.00;101168.28;2064772;28;20577;-65
2022/07/25 00:23:48;;;;;;;9.57;6.00;;;;;;;26.70;100.00;101174.59;2064721;28;20198;-65
2022/07/25 00:24:48;;;;;;;6.30;5.70;;;;;;;26.71;100.00;101176.91;2059113;28;20266;-65
2022/07/25 00:25:49;;;;;;;5.90;5.30;;;;;;;26.64;100.00;101171.81;2061416;28;20205;-65
2022/07/25 00:26:49;;;;;;;7.07;6.13;;;;;;;26.66;100.00;101176.97;2064919;28;20202;-65
2022/07/25 00:27:50;;;;;;;9.77;6.03;;;;;;;26.58;100.00;101179.63;2062378;28;20206;-65
2022/07/25 00:28:51;;;;;;;6.70;5.57;;;;;;;25.83;100.00;101072.47;2049070;28;20191;-65
2022/07/25 00:29:51;;;;;;;6.90;5.90;;;;;;;26.46;100.00;101168.84;2057033;28;20187;-65
2022/07/25 00:30:52;;;;;;;9.03;5.57;;;;;;;26.47;100.00;101181.75;2064424;28;20190;-65
2022/07/25 00:31:53;;;;;;;7.50;6.10;;;;;;;26.14;100.00;101133.69;2065029;28;20178;-65
2022/07/25 00:32:53;;;;;;;6.43;5.83;;;;;;;25.74;100.00;101069.94;2065023;28;20210;-65
2022/07/25 00:33:53;;;;;;;10.07;6.30;;;;;;;26.41;100.00;101176.09;2068681;28;20178;-65
2022/07/25 00:34:54;;;;;;;8.70;5.90;;;;;;;26.44;100.00;101179.97;2070603;28;20173;-65
2022/07/25 00:35:54;;;;;;;6.70;5.40;;;;;;;26.38;100.00;101176.41;2064098;28;20186;-65
2022/07/25 00:36:55;;;;;;;6.77;5.80;;;;;;;25.77;100.00;101082.31;2056882;28;20241;-65
2022/07/25 00:37:56;;;;;;;7.03;5.93;;;;;;;26.36;100.00;101174.06;2056994;28;20179;-65
2022/07/25 00:38:56;;;;;;;6.63;5.83;;;;;;;26.31;100.00;101171.28;2056672;28;20205;-65
2022/07/25 00:39:56;;;;;;;6.73;6.03;;;;;;;26.26;100.00;101164.34;2048315;29;20693;-65
2022/07/25 00:40:57;;;;;;;7.13;6.13;;;;;;;26.34;100.00;101173.84;2048175;29;20176;-65
2022/07/25 00:41:57;;;;;;;7.90;6.37;;;;;;;26.11;100.00;101138.38;2061427;28;20222;-65
2022/07/25 00:42:58;;;;;;;8.00;5.80;;;;;;;26.31;100.00;101174.13;2065299;28;20174;-65
2022/07/25 00:43:58;;;;;;;7.13;5.73;;;;;;;26.28;100.00;101175.97;2073266;28;20182;-65
2022/07/25 00:44:59;;;;;;;7.47;6.30;;;;;;;25.85;100.00;101111.69;2074385;28;20182;-65
2022/07/25 00:45:59;;;;;;;8.07;6.30;;;;;;;26.21;100.00;101170.09;2074605;28;20173;-65
2022/07/25 00:47:00;;;;;;;6.30;5.70;;;;;;;26.19;100.00;101170.59;2069794;28;20186;-65
2022/07/25 00:48:00;;;;;;;6.50;5.77;;;;;;;26.00;100.00;101140.53;2066489;28;20193;-65
2022/07/25 00:49:01;;;;;;;7.03;6.20;;;;;;;26.18;100.00;101165.44;2067213;28;20186;-65
2022/07/25 00:50:01;;;;;;;6.73;5.87;;;;;;;25.91;100.00;101153.00;2066494;28;20564;-65
2022/07/25 00:51:02;;;;;;;6.50;5.80;;;;;;;26.08;100.00;101169.91;2066457;28;20194;-65
2022/07/25 00:52:03;;;;;;;8.67;5.80;;;;;;;26.08;100.00;101165.00;2073539;28;20264;-65
2022/07/25 00:53:04;;;;;;;6.37;5.77;;;;;;;25.72;100.00;101131.38;2074331;28;20695;-65
2022/07/25 00:54:04;;;;;;;7.63;6.07;;;;;;;25.79;100.00;101130.84;2074431;28;20570;-65
2022/07/25 00:55:05;;;;;;;6.73;5.93;;;;;;;25.99;100.00;101162.47;2074191;28;20177;-65
2022/07/25 00:56:07;;;;;;;6.30;5.70;;;;;;;25.92;100.00;101162.25;2074479;28;20558;-65
2022/07/25 00:57:07;;;;;;;6.30;5.60;;;;;;;25.90;100.00;101159.91;2074236;28;20212;-65
2022/07/25 00:58:07;;;;;;;10.20;5.90;;;;;;;25.91;100.00;101167.19;2066537;28;20185;-65
2022/07/25 00:59:09;;;;;;;6.47;5.77;;;;;;;25.85;100.00;101174.16;2072712;28;20284;-65
2022/07/25 01:00:13;;;;;;;6.93;6.23;;;;;;;25.81;100.00;101167.97;2069084;28;20572;-65
2022/07/25 01:01:13;;;;;;;6.93;6.10;;;;;;;25.84;100.00;101169.78;2066186;28;20181;-65
2022/07/25 01:02:14;;;;;;;6.53;5.70;;;;;;;25.81;100.00;101162.31;2069518;28;20248;-64
2022/07/25 01:03:14;;;;;;;6.47;5.80;;;;;;;25.77;100.00;101167.47;2072800;28;20209;-65
2022/07/25 01:04:16;;;;;;;7.40;5.63;;;;;;;25.73;100.00;101176.28;2066831;28;20189;-65
2022/07/25 01:05:17;;;;;;;6.53;5.87;;;;;;;25.72;100.00;101171.13;2074331;28;20185;-65
2022/07/25 01:06:18;;;;;;;9.00;6.60;;;;;;;25.69;100.00;101155.16;2066543;28;20222;-65
2022/07/25 01:07:18;;;;;;;6.33;5.70;;;;;;;25.22;100.00;101074.09;2072725;28;20188;-65
2022/07/25 01:08:20;;;;;;;7.67;6.00;;;;;;;25.79;100.00;101159.22;2069255;28;20201;-65
2022/07/25 01:09:21;;;;;;;7.77;5.63;;;;;;;25.60;100.00;101133.53;2069966;28;20181;-65
2022/07/25 01:10:22;;;;;;;10.70;5.70;;;;;;;25.81;100.00;101162.31;2072033;28;20206;-65
2022/07/25 01:11:23;;;;;;;6.73;5.67;;;;;;;25.29;100.00;101090.59;2067086;28;20241;-65
2022/07/25 01:12:24;;;;;;;6.53;5.80;;;;;;;25.85;100.00;101163.56;2074439;28;20205;-65
2022/07/25 01:13:25;;;;;;;7.10;5.87;;;;;;;25.82;100.00;101158.16;2066402;28;20190;-65
2022/07/25 01:14:25;;;;;;;7.47;6.07;;;;;;;25.80;100.00;101164.38;2073298;28;20246;-65
2022/07/25 01:15:26;;;;;;;7.67;6.33;;;;;;;25.79;100.00;101157.16;2074016;28;20273;-65
2022/07/25 01:16:26;;;;;;;6.67;5.60;;;;;;;25.82;100.00;101163.84;2074390;28;20181;-65
2022/07/25 01:17:27;;;;;;;6.53;5.93;;;;;;;25.87;100.00;101157.34;2074327;28;20169;-65
2022/07/25 01:18:27;;;;;;;6.40;5.80;;;;;;;25.84;100.00;101158.44;2071932;28;20653;-65
2022/07/25 01:19:28;;;;;;;6.93;6.20;;;;;;;25.86;100.00;101156.59;2066247;28;20210;-65
2022/07/25 01:20:30;;;;;;;6.50;5.83;;;;;;;25.88;100.00;101167.41;2066311;28;20186;-65
2022/07/25 01:21:31;;;;;;;9.50;6.30;;;;;;;25.87;100.00;101158.16;2065930;28;20640;-65
2022/07/25 01:22:31;;;;;;;6.47;5.87;;;;;;;25.88;100.00;101161.72;2073759;28;20267;-65
2022/07/25 01:23:32;;;;;;;6.97;5.73;;;;;;;25.90;100.00;101162.00;2074245;28;20192;-65
2022/07/25 01:24:34;;;;;;;6.63;6.00;;;;;;;25.92;100.00;101159.44;2074323;28;20265;-65
2022/07/25 01:25:34;;;;;;;9.37;6.50;;;;;;;25.89;100.00;101151.94;2069680;28;20253;-65
2022/07/25 01:26:36;;;;;;;7.37;6.30;;;;;;;25.93;100.00;101156.06;2066207;28;20233;-65
2022/07/25 01:27:37;;;;;;;6.97;6.17;;;;;;;25.96;100.00;101157.88;2067919;28;20186;-65
2022/07/25 01:28:37;;;;;;;7.87;5.60;;;;;;;25.97;100.00;101155.78;2074515;28;20177;-65
2022/07/25 01:29:38;;;;;;;6.97;6.00;;;;;;;25.96;100.00;101162.75;2074306;28;20185;-65
2022/07/25 01:30:38;;;;;;;9.27;6.03;;;;;;;25.97;100.00;101158.63;2074179;28;20193;-65
2022/07/25 01:31:39;;;;;;;6.53;5.63;;;;;;;25.94;100.00;101151.16;2073954;28;20190;-65
2022/07/25 01:32:41;;;;;;;8.67;6.03;;;;;;;25.91;100.00;101155.03;2068839;28;20236;-65
2022/07/25 01:33:41;;;;;;;7.00;6.27;;;;;;;25.93;100.00;101149.59;2070285;28;20660;-65
2022/07/25 01:34:41;;;;;;;8.23;6.53;;;;;;;25.91;100.00;101146.50;2074116;28;20674;-65
2022/07/25 01:35:42;;;;;;;7.60;6.20;;;;;;;25.95;100.00;101152.69;2074039;28;20265;-65
2022/07/25 01:36:43;;;;;;;6.33;5.73;;;;;;;25.93;100.00;101153.22;2074213;28;20337;-65
2022/07/25 01:37:43;;;;;;;8.67;6.07;;;;;;;25.96;100.00;101143.66;2065969;28;20250;-65
2022/07/25 01:38:44;;;;;;;7.97;6.00;;;;;;;25.94;100.00;101146.25;2065880;28;20190;-65
2022/07/25 01:39:44;;;;;;;8.47;6.30;;;;;;;25.93;100.00;101153.22;2071965;28;20182;-65
2022/07/25 01:40:45;;;;;;;9.43;6.13;;;;;;;25.95;100.00;101150.63;2069087;28;20217;-65
2022/07/25 01:41:45;;;;;;;6.93;6.23;;;;;;;25.93;100.00;101147.53;2069590;28;20276;-65
2022/07/25 01:42:46;;;;;;;10.77;6.93;;;;;;;25.94;100.00;101146.25;2071377;28;20566;-65
2022/07/25 01:43:46;;;;;;;7.97;6.40;;;;;;;25.93;100.00;101147.53;2067091;28;20262;-65
2022/07/25 01:44:47;;;;;;;7.87;6.13;;;;;;;25.95;100.00;101150.63;2073943;28;20188;-65
2022/07/25 01:45:47;;;;;;;6.43;5.83;;;;;;;25.89;100.00;101135.66;2074192;28;20636;-65
2022/07/25 01:46:48;;;;;;;10.10;6.60;;;;;;;25.96;100.00;101152.19;2074088;28;20269;-65
2022/07/25 01:47:48;;;;;;;9.97;6.63;;;;;;;25.96;100.00;101152.19;2074055;28;20656;-65
2022/07/25 01:48:49;;;;;;;8.47;6.17;;;;;;;25.77;100.00;101117.16;2070178;28;20198;-65
2022/07/25 01:49:49;;;;;;;6.83;6.17;;;;;;;25.90;100.00;101168.44;2074164;28;20182;-65
2022/07/25 01:50:50;;;;;;;6.80;6.20;;;;;;;25.95;100.00;101152.69;2072453;28;20262;-65
2022/07/25 01:51:50;;;;;;;7.03;5.97;;;;;;;25.95;100.00;101155.53;2065860;28;20616;-65
2022/07/25 01:52:51;;;;;;;6.33;5.70;;;;;;;25.92;100.00;101157.38;2066143;28;20178;-65
2022/07/25 01:53:52;;;;;;;7.67;6.10;;;;;;;25.62;100.00;101113.91;2072390;28;20660;-65
2022/07/25 01:54:52;;;;;;;6.90;6.20;;;;;;;25.95;100.00;101150.63;2073766;28;20181;-65
2022/07/25 01:55:53;;;;;;;8.80;6.10;;;;;;;25.97;100.00;101150.88;2068450;28;20253;-65
2022/07/25 01:56:53;;;;;;;9.43;6.60;;;;;;;25.96;100.00;101152.19;2068702;28;20578;-65
2022/07/25 01:57:53;;;;;;;9.50;6.30;;;;;;;25.96;100.00;101154.25;2072669;28;20165;-65
2022/07/25 01:58:54;;;;;;;7.10;5.83;;;;;;;25.96;100.00;101149.34;2066049;28;20202;-65
2022/07/25 01:59:54;;;;;;;7.50;5.67;;;;;;;25.97;100.00;101150.09;2073640;28;20194;-65
2022/07/25 02:00:55;;;;;;;8.57;6.00;;;;;;;25.17;100.00;101043.72;2073802;28;20227;-65
2022/07/25 02:01:56;;;;;;;6.63;5.93;;;;;;;25.95;100.00;101147.03;2068825;28;20214;-65
2022/07/25 02:04:15;;;;;;;9.70;5.80;;;;;;;25.92;100.00;101148.84;2065973;28;20166;-65
2022/07/25 02:05:16;;;;;;;9.60;6.50;;;;;;;25.93;100.00;101146.75;2065559;28;20186;-65
2022/07/25 02:06:18;;;;;;;8.53;6.30;;;;;;;25.60;100.00;101108.00;2068357;28;20185;-65
2022/07/25 02:07:19;;;;;;;7.93;6.20;;;;;;;25.13;100.00;101031.88;2072652;28;20209;-65
2022/07/25 02:08:19;;;;;;;6.63;5.40;;;;;;;25.88;100.00;101148.31;2065930;28;20617;-65
2022/07/25 02:09:20;;;;;;;7.03;5.73;;;;;;;25.88;100.00;101145.47;2065849;28;20182;-65
2022/07/25 02:10:20;;;;;;;6.83;5.63;;;;;;;25.88;100.00;101139.03;2065842;28;20183;-65
2022/07/25 02:11:21;;;;;;;8.63;5.43;;;;;;;25.82;100.00;101135.44;2071730;28;20192;-65
2022/07/25 02:12:21;;;;;;;7.63;5.97;;;;;;;25.89;100.00;101147.03;2073873;28;20208;-65
2022/07/25 02:13:23;;;;;;;7.33;5.87;;;;;;;25.87;100.00;101148.84;2070133;28;20712;-65
2022/07/25 02:14:23;;;;;;;8.07;6.23;;;;;;;25.86;100.00;101150.16;2068531;28;20174;-65
2022/07/25 02:15:24;;;;;;;6.30;5.63;;;;;;;25.82;100.00;101147.59;2072080;28;20184;-65
2022/07/25 02:16:24;;;;;;;7.87;6.20;;;;;;;25.77;100.00;101168.25;2065561;28;20313;-65
2022/07/25 02:17:25;;;;;;;6.37;5.63;;;;;;;25.59;100.00;101111.34;2065749;28;20568;-65
2022/07/25 02:18:25;;;;;;;9.47;5.90;;;;;;;25.76;100.00;101146.84;2065672;28;20190;-65
2022/07/25 02:19:26;;;;;;;9.20;6.10;;;;;;;25.63;100.00;101151.56;2071764;28;20632;-65
2022/07/25 02:20:26;;;;;;;11.17;5.93;;;;;;;25.63;100.00;101146.66;2073938;28;20194;-65
2022/07/25 02:21:27;;;;;;;6.37;5.77;;;;;;;25.59;100.00;101154.66;2069345;28;20218;-65
2022/07/25 02:22:28;;;;;;;6.47;5.80;;;;;;;25.63;100.00;101157.22;2065722;28;20197;-65
2022/07/25 02:23:28;;;;;;;7.80;5.93;;;;;;;25.63;100.00;101148.72;2065367;28;20178;-65
2022/07/25 02:24:29;;;;;;;10.20;6.27;;;;;;;25.60;100.00;101156.25;2065862;28;20617;-65
2022/07/25 02:25:29;;;;;;;6.60;6.00;;;;;;;25.63;100.00;101158.00;2073706;28;20185;-65
2022/07/25 02:26:30;;;;;;;6.73;5.80;;;;;;;25.66;100.00;101156.97;2073841;28;20209;-65
2022/07/25 02:27:30;;;;;;;6.20;5.50;;;;;;;25.65;100.00;101146.13;2067070;28;20192;-65
2022/07/25 02:28:31;;;;;;;7.90;5.93;;;;;;;25.66;100.00;101151.31;2070542;28;20213;-65
2022/07/25 02:29:32;;;;;;;6.77;5.93;;;;;;;25.68;100.00;101153.59;2073685;28;20213;-65
2022/07/25 02:30:33;;;;;;;7.57;6.17;;;;;;;25.69;100.00;101152.31;2073841;28;20173;-65
2022/07/25 02:31:33;;;;;;;6.83;5.60;;;;;;;25.70;100.00;101151.00;2073547;28;20182;-65
2022/07/25 02:32:34;;;;;;;6.23;5.57;;;;;;;25.70;100.00;101151.78;2073834;28;20201;-65
2022/07/25 02:33:35;;;;;;;7.40;5.90;;;;;;;25.69;100.00;101152.31;2065656;28;20707;-65
2022/07/25 02:34:35;;;;;;;9.93;6.40;;;;;;;25.45;100.00;101115.28;2065699;28;20684;-65
2022/07/25 02:35:35;;;;;;;10.30;6.17;;;;;;;25.68;100.00;101157.22;2066524;28;20669;-65
2022/07/25 02:36:36;;;;;;;10.50;6.47;;;;;;;25.69;100.00;101153.06;2073763;28;20200;-65
2022/07/25 02:37:37;;;;;;;8.33;6.10;;;;;;;25.67;100.00;101155.69;2064845;28;20699;-65
2022/07/25 02:38:37;;;;;;;8.70;6.07;;;;;;;25.54;100.00;101132.75;2065142;28;20272;-65
2022/07/25 02:39:38;;;;;;;8.00;6.17;;;;;;;25.65;100.00;101155.41;2073653;28;20180;-65
2022/07/25 02:40:38;;;;;;;8.77;6.20;;;;;;;25.67;100.00;101152.06;2073849;28;20639;-65
2022/07/25 02:41:39;;;;;;;9.40;6.40;;;;;;;25.32;100.00;101115.06;2066382;28;20589;-65
2022/07/25 02:42:40;;;;;;;10.33;6.50;;;;;;;25.65;100.00;101160.34;2070863;28;20189;-65
2022/07/25 02:43:40;;;;;;;10.73;6.57;;;;;;;25.61;100.00;101160.63;2073347;28;20198;-65
2022/07/25 02:44:41;;;;;;;7.70;6.33;;;;;;;25.63;100.00;101168.59;2070830;28;20308;-65
2022/07/25 02:45:41;;;;;;;10.13;6.50;;;;;;;25.64;100.00;101158.78;2065777;28;20197;-65
2022/07/25 02:46:42;;;;;;;12.33;6.83;;;;;;;25.61;100.00;101160.63;2065707;28;20182;-65
2022/07/25 02:47:42;;;;;;;10.70;5.90;;;;;;;25.54;100.00;101161.16;2065406;28;20225;-65
2022/07/25 02:48:43;;;;;;;7.43;6.13;;;;;;;25.25;100.00;101116.41;2071903;28;20178;-65
2022/07/25 02:49:43;;;;;;;8.60;6.10;;;;;;;25.53;100.00;101161.69;2068756;28;20194;-65
2022/07/25 02:50:44;;;;;;;11.93;6.03;;;;;;;25.51;100.00;101167.88;2065654;28;20544;-65
2022/07/25 02:51:44;;;;;;;10.80;6.30;;;;;;;25.50;100.00;101174.06;2067669;28;20576;-65
2022/07/25 02:52:45;;;;;;;8.17;6.40;;;;;;;25.40;100.00;101165.09;2072280;28;20261;-65
2022/07/25 02:53:45;;;;;;;9.83;6.00;;;;;;;25.44;100.00;101176.16;2065313;28;20554;-65
2022/07/25 02:54:46;;;;;;;10.27;6.50;;;;;;;25.42;100.00;101167.38;2065150;28;20334;-65
2022/07/25 02:55:46;;;;;;;14.37;6.60;;;;;;;25.37;100.00;101177.47;2070297;28;20244;-65
2022/07/25 02:56:47;;;;;;;8.63;6.57;;;;;;;25.19;100.00;101160.25;2073471;28;20566;-65
2022/07/25 02:57:47;;;;;;;10.13;6.73;;;;;;;25.17;100.00;101174.19;2073486;28;20719;-65
2022/07/25 02:58:47;;;;;;;7.97;6.50;;;;;;;25.20;100.00;101178.78;2073261;28;20565;-65
2022/07/25 02:59:48;;;;;;;9.37;6.13;;;;;;;25.07;100.00;101181.44;2072553;28;20742;-65
2022/07/25 03:00:48;;;;;;;6.93;5.90;;;;;;;25.05;100.00;101181.16;2065466;28;20186;-65
2022/07/25 03:01:49;;;;;;;7.80;6.43;;;;;;;24.97;100.00;101166.72;2065384;28;20244;-65
2022/07/25 03:02:50;;;;;;;9.43;6.63;;;;;;;25.07;100.00;101182.19;2072025;28;20197;-65
2022/07/25 03:03:50;;;;;;;6.93;6.23;;;;;;;25.08;100.00;101182.97;2073253;28;20186;-65
2022/07/25 03:04:51;;;;;;;9.20;6.33;;;;;;;25.08;100.00;101182.97;2073302;28;20256;-65
2022/07/25 03:05:51;;;;;;;8.73;6.27;;;;;;;25.11;100.00;101170.56;2071644;28;20209;-65
2022/07/25 03:06:52;;;;;;;12.37;6.93;;;;;;;25.11;100.00;101174.19;2064936;28;20201;-65
2022/07/25 03:07:52;;;;;;;8.93;6.57;;;;;;;24.17;100.00;101034.72;2065443;28;20174;-65
2022/07/25 03:08:53;;;;;;;8.30;6.10;;;;;;;25.10;100.00;101172.66;2065509;28;20194;-65
2022/07/25 03:09:53;;;;;;;11.43;6.87;;;;;;;25.13;100.00;101179.34;2065421;28;20202;-65
2022/07/25 03:10:54;;;;;;;9.60;6.37;;;;;;;25.14;100.00;101172.38;2070479;28;20201;-65
2022/07/25 03:11:54;;;;;;;10.70;6.63;;;;;;;25.13;100.00;101168.00;2073505;28;20178;-65
2022/07/25 03:12:54;;;;;;;11.70;6.30;;;;;;;24.75;100.00;101126.31;2070271;28;20643;-65
2022/07/25 03:13:55;;;;;;;8.60;6.50;;;;;;;24.93;100.00;101162.63;2065436;28;20182;-65
2022/07/25 03:14:56;;;;;;;8.77;6.40;;;;;;;25.00;100.00;101170.59;2065198;28;20178;-65
2022/07/25 03:15:56;;;;;;;10.37;6.37;;;;;;;25.06;100.00;101185.53;2065363;28;20671;-65
2022/07/25 03:16:57;;;;;;;13.00;6.60;;;;;;;24.41;100.00;101107.81;2072267;28;20591;-65
2022/07/25 03:17:57;;;;;;;10.43;7.23;;;;;;;24.88;100.00;101186.84;2067206;28;20193;-65
2022/07/25 03:18:58;;;;;;;13.00;7.20;;;;;;;24.85;100.00;101193.56;2070034;28;20640;-65
2022/07/25 03:19:58;;;;;;;12.33;7.03;;;;;;;24.84;100.00;101200.53;2073523;28;20174;-65
2022/07/25 03:20:59;;;;;;;11.73;7.00;;;;;;;24.89;100.00;101194.09;2073215;28;20245;-65
2022/07/25 03:21:59;;;;;;;19.60;7.53;;;;;;;24.64;100.00;101189.47;2071506;28;20457;-65
2022/07/25 03:23:00;;;;;;;18.73;8.33;;;;;;;24.35;100.00;101158.78;2065726;28;20706;-65
2022/07/25 03:24:00;;;;;;;19.33;7.60;;;;;;;24.67;100.00;101199.75;2073471;28;20188;-65
2022/07/25 03:25:01;;;;;;;18.20;8.07;;;;;;;24.74;100.00;101198.47;2066238;28;20194;-65
2022/07/25 03:26:01;;;;;;;24.23;8.40;;;;;;;24.76;100.00;101210.84;2071005;28;20255;-65
2022/07/25 03:27:02;;;;;;;22.13;8.27;;;;;;;24.20;100.00;101120.69;2068672;28;20212;-65
2022/07/25 03:28:02;;;;;;;22.37;8.53;;;;;;;23.82;100.00;101059.91;2067951;28;20232;-65
2022/07/25 03:29:03;;;;;;;26.73;9.00;;;;;;;24.60;100.00;101191.00;2073243;28;20232;-65
2022/07/25 03:30:04;;;;;;;28.60;9.93;;;;;;;24.73;100.00;101211.88;2072316;28;20177;-65
2022/07/25 03:31:04;;;;;;;31.00;9.83;;;;;;;24.77;100.00;101212.38;2065215;28;20170;-65
2022/07/25 03:32:06;;;;;;;23.60;9.13;;;;;;;24.73;100.00;101206.22;2073083;28;20543;-65
2022/07/25 03:33:06;;;;;;;27.07;9.17;;;;;;;24.69;100.00;101210.59;2066176;28;20638;-65
2022/07/25 03:35:25;;;;;;;23.00;8.80;;;;;;;24.71;100.00;101202.34;2066029;28;20186;-65
2022/07/25 03:36:26;;;;;;;21.67;8.70;;;;;;;24.78;100.00;101208.25;2072958;28;20193;-65
2022/07/25 03:37:26;;;;;;;25.20;8.80;;;;;;;24.21;100.00;101133.56;2072893;28;20194;-65
2022/07/25 03:38:27;;;;;;;23.13;8.03;;;;;;;24.38;100.00;101143.59;2073319;28;20236;-65
2022/07/25 03:39:28;;;;;;;21.63;8.50;;;;;;;24.82;100.00;101203.09;2071702;28;20269;-65
2022/07/25 03:40:28;;;;;;;19.93;8.10;;;;;;;24.64;100.00;101185.84;2065269;28;20186;-65
2022/07/25 03:41:29;;;;;;;18.47;8.17;;;;;;;24.81;100.00;101215.72;2072661;28;20237;-65
2022/07/25 03:42:29;;;;;;;14.27;7.17;;;;;;;24.85;100.00;101206.97;2073353;28;20189;-65
2022/07/25 03:43:30;;;;;;;14.37;8.30;;;;;;;24.88;100.00;101209.53;2073047;28;20668;-65
2022/07/25 03:44:31;;;;;;;14.40;7.60;;;;;;;24.87;100.00;101219.34;2073129;28;20256;-65
2022/07/25 03:45:31;;;;;;;18.83;7.63;;;;;;;24.83;100.00;101201.06;2072888;28;20778;-65
2022/07/25 03:46:32;;;;;;;17.47;8.10;;;;;;;24.88;100.00;101209.53;2073226;28;20269;-65
2022/07/25 03:47:32;;;;;;;23.13;8.20;;;;;;;24.82;100.00;101208.00;2072983;28;20177;-65
2022/07/25 03:48:33;;;;;;;18.20;8.10;;;;;;;24.83;100.00;101204.63;2073272;28;20643;-65
2022/07/25 03:49:33;;;;;;;15.20;7.60;;;;;;;24.82;100.00;101214.44;2072956;28;20200;-65
2022/07/25 03:50:34;;;;;;;17.43;8.00;;;;;;;24.85;100.00;101209.78;2067919;28;20188;-65
2022/07/25 03:51:34;;;;;;;17.53;8.10;;;;;;;24.41;100.00;101145.38;2068450;28;20688;-65
2022/07/25 03:52:37;;;;;;;18.20;7.40;;;;;;;24.73;100.00;101188.44;2071017;28;20244;-65
2022/07/25 03:54:00;;;;;;;13.67;7.07;;;;;;;24.89;100.00;101213.16;2064819;28;20179;-65
2022/07/25 03:54:57;;;;;;;10.57;7.00;;;;;;;24.92;100.00;101206.47;2066823;28;20217;-65
2022/07/25 03:55:58;;;;;;;11.07;6.50;;;;;;;24.90;100.00;101212.63;2072919;28;20176;-65
2022/07/25 03:56:58;;;;;;;10.27;6.70;;;;;;;24.90;100.00;101206.19;2073151;28;20182;-65
2022/07/25 03:57:59;;;;;;;9.33;6.57;;;;;;;24.87;100.00;101212.91;2073283;28;20186;-65
2022/07/25 03:58:59;;;;;;;12.90;7.23;;;;;;;24.79;100.00;101203.38;2073168;28;20201;-65
2022/07/25 04:00:00;;;;;;;11.43;7.10;;;;;;;24.77;100.00;101203.88;2067846;28;20197;-65
2022/07/25 04:01:00;;;;;;;11.60;7.57;;;;;;;24.78;100.00;101219.59;2068691;28;20694;-65
2022/07/25 04:02:01;;;;;;;9.93;6.97;;;;;;;24.80;100.00;101224.75;2073155;28;20240;-65
2022/07/25 04:03:01;;;;;;;10.47;6.93;;;;;;;24.82;100.00;101213.69;2072991;28;20240;-65
2022/07/25 04:04:03;;;;;;;8.13;7.20;;;;;;;24.85;100.00;101215.47;2073173;28;20192;-65
2022/07/25 04:05:06;;;;;;;9.43;6.90;;;;;;;24.88;100.00;101212.38;2064949;28;20256;-65
2022/07/25 04:06:06;;;;;;;9.00;6.40;;;;;;;24.91;100.00;101211.34;2065130;28;20183;-65
2022/07/25 04:07:07;;;;;;;10.20;7.00;;;;;;;24.93;100.00;101210.84;2070308;28;20188;-65
2022/07/25 04:08:07;;;;;;;11.30;6.60;;;;;;;24.96;100.00;101215.44;2073190;28;20185;-65
2022/07/25 04:09:09;;;;;;;7.27;6.23;;;;;;;24.98;100.00;101205.13;2071121;28;20256;-65
2022/07/25 04:10:10;;;;;;;7.70;6.57;;;;;;;24.93;100.00;101213.66;2064769;28;20182;-65
2022/07/25 04:11:10;;;;;;;7.07;6.00;;;;;;;24.95;100.00;101206.19;2065118;28;20186;-65
2022/07/25 04:12:11;;;;;;;7.23;6.30;;;;;;;24.93;100.00;101214.41;2073306;28;20210;-65
2022/07/25 04:13:12;;;;;;;7.57;6.03;;;;;;;24.96;100.00;101213.41;2073056;28;20644;-65
2022/07/25 04:14:13;;;;;;;9.90;6.30;;;;;;;24.99;100.00;101214.44;2067911;28;20185;-65
2022/07/25 04:15:13;;;;;;;8.90;6.53;;;;;;;24.94;100.00;101209.53;2064909;28;20182;-65
2022/07/25 04:16:14;;;;;;;15.60;6.70;;;;;;;24.96;100.00;101209.78;2064907;28;20182;-65
2022/07/25 04:17:15;;;;;;;10.53;6.67;;;;;;;24.93;100.00;101208.75;2065441;28;20182;-65
2022/07/25 04:18:16;;;;;;;8.27;6.53;;;;;;;24.95;100.00;101211.84;2073190;28;20660;-65
2022/07/25 04:19:16;;;;;;;8.33;6.77;;;;;;;25.00;100.00;101215.97;2066095;28;20577;-65
2022/07/25 04:20:17;;;;;;;8.23;6.77;;;;;;;24.88;100.00;101194.59;2058050;28;20243;-65
2022/07/25 04:21:17;;;;;;;9.63;7.27;;;;;;;25.04;100.00;101213.66;2057843;28;20211;-65
2022/07/25 04:22:18;;;;;;;9.80;7.27;;;;;;;25.10;100.00;101215.19;2070310;28;20248;-65
2022/07/25 04:23:18;;;;;;;9.70;6.47;;;;;;;25.15;100.00;101211.56;2071612;28;20194;-65
2022/07/25 04:24:18;;;;;;;11.23;6.97;;;;;;;25.20;100.00;101216.44;2068706;28;20268;-65
2022/07/25 04:25:19;;;;;;;10.80;6.70;;;;;;;25.05;100.00;101209.50;2074352;28;20228;-65
2022/07/25 04:26:20;;;;;;;14.00;6.77;;;;;;;25.21;100.00;101212.31;2072182;28;20180;-65
2022/07/25 04:27:21;;;;;;;9.20;6.93;;;;;;;25.27;100.00;101215.94;2072801;28;20670;-65
2022/07/25 04:28:21;;;;;;;10.80;7.23;;;;;;;25.26;100.00;101216.44;2061434;28;20202;-65
2022/07/25 04:29:22;;;;;;;8.60;7.17;;;;;;;25.11;100.00;101225.22;2062275;28;20190;-65
2022/07/25 04:30:22;;;;;;;9.07;7.03;;;;;;;25.03;100.00;101223.44;2072125;28;20802;-64
2022/07/25 04:31:24;;;;;;;10.57;7.30;;;;;;;24.66;100.00;101167.03;2073782;28;20209;-65
2022/07/25 04:32:24;;;;;;;10.10;6.97;;;;;;;25.01;100.00;101223.19;2073603;28;20276;-64
2022/07/25 04:33:25;;;;;;;8.07;6.87;;;;;;;25.06;100.00;101225.22;2073266;28;20194;-64
2022/07/25 04:34:26;;;;;;;10.40;7.53;;;;;;;25.08;100.00;101226.25;2073067;28;20196;-64
2022/07/25 04:35:26;;;;;;;8.10;7.30;;;;;;;25.15;100.00;101230.63;2073689;28;20193;-64
2022/07/25 04:36:27;;;;;;;10.03;7.60;;;;;;;25.12;100.00;101223.19;2073671;28;20221;-64
2022/07/25 04:37:27;;;;;;;10.57;7.47;;;;;;;25.08;100.00;101211.31;2070000;28;20200;-64
2022/07/25 04:38:28;;;;;;;8.30;7.20;;;;;;;25.28;100.00;101226.00;2072584;28;20216;-64
2022/07/25 04:39:28;;;;;;;10.73;7.90;;;;;;;25.24;100.00;101236.78;2071447;28;20185;-64
2022/07/25 04:40:29;;;;;;;9.50;7.50;;;;;;;25.22;100.00;101239.38;2073649;28;20239;-64